createdAt,value
2024-04-18T00:00:47.655Z,5.97
2024-04-18T00:03:15.729Z,5.89
2024-04-18T00:05:42.361Z,5.77
2024-04-18T00:08:08.940Z,5.73
2024-04-18T00:10:35.602Z,5.76
2024-04-18T00:13:02.236Z,5.73
2024-04-18T00:15:28.825Z,5.63
2024-04-18T00:17:58.849Z,5.70
2024-04-18T00:20:26.118Z,5.69
2024-04-18T00:22:55.687Z,5.58
2024-04-18T00:25:23.389Z,5.55
2024-04-18T00:27:49.991Z,5.72
2024-04-18T00:30:17.872Z,5.82
2024-04-18T00:32:44.599Z,5.86
2024-04-18T00:35:11.258Z,5.97
2024-04-18T00:37:38.286Z,6.14
2024-04-18T00:40:05.425Z,6.06
2024-04-18T00:42:32.028Z,6.03
2024-04-18T00:44:58.696Z,6.03
2024-04-18T00:47:25.836Z,6.09
2024-04-18T00:49:53.198Z,6.10
2024-04-18T00:52:21.506Z,6.09
2024-04-18T00:54:49.674Z,6.13
2024-04-18T00:57:18.462Z,6.30
2024-04-18T00:59:48.336Z,6.35
2024-04-18T01:02:15.717Z,6.41
2024-04-18T01:04:42.855Z,6.34
2024-04-18T01:07:09.541Z,6.38
2024-04-18T01:09:36.076Z,6.25
2024-04-18T01:12:02.888Z,6.21
2024-04-18T01:14:30.837Z,6.18
2024-04-18T01:16:57.508Z,6.23
2024-04-18T01:19:24.300Z,6.21
2024-04-18T01:21:51.360Z,6.27
2024-04-18T01:24:17.997Z,6.14
2024-04-18T01:26:44.624Z,6.23
2024-04-18T01:29:11.305Z,6.23
2024-04-18T01:31:37.804Z,6.25
2024-04-18T01:34:04.435Z,6.18
2024-04-18T01:36:32.151Z,6.18
2024-04-18T01:38:58.756Z,6.14
2024-04-18T01:41:25.623Z,6.09
2024-04-18T01:43:52.291Z,5.93
2024-04-18T01:46:18.841Z,5.80
2024-04-18T01:48:46.827Z,5.60
2024-04-18T01:51:14.194Z,5.54
2024-04-18T01:53:41.419Z,5.46
2024-04-18T01:56:10.289Z,5.31
2024-04-18T01:58:36.890Z,5.31
2024-04-18T02:01:03.747Z,5.25
2024-04-18T02:03:32.269Z,5.27
2024-04-18T02:05:58.856Z,5.28
2024-04-18T02:08:25.471Z,5.28
2024-04-18T02:10:52.166Z,5.24
2024-04-18T02:13:21.337Z,5.31
2024-04-18T02:15:47.935Z,5.27
2024-04-18T02:18:14.638Z,5.32
2024-04-18T02:20:41.280Z,5.39
2024-04-18T02:23:08.973Z,5.52
2024-04-18T02:25:35.581Z,5.56
2024-04-18T02:28:02.314Z,5.54
2024-04-18T02:30:30.442Z,5.54
2024-04-18T02:32:57.532Z,5.51
2024-04-18T02:35:24.100Z,5.63
2024-04-18T02:37:50.687Z,5.67
2024-04-18T02:40:17.430Z,5.58
2024-04-18T02:42:44.149Z,5.55
2024-04-18T02:45:10.809Z,5.66
2024-04-18T02:47:37.428Z,5.62
2024-04-18T02:50:04.322Z,5.45
2024-04-18T02:52:31.070Z,5.41
2024-04-18T02:54:57.708Z,5.23
2024-04-18T02:57:25.154Z,5.11
2024-04-18T02:59:51.733Z,5.03
2024-04-18T03:02:18.405Z,4.90
2024-04-18T03:04:45.451Z,5.03
2024-04-18T03:07:12.147Z,4.94
2024-04-18T03:09:38.794Z,5.06
2024-04-18T03:12:05.717Z,5.31
2024-04-18T03:14:32.504Z,5.34
2024-04-18T03:16:59.120Z,5.32
2024-04-18T03:19:25.709Z,5.39
2024-04-18T03:21:53.508Z,5.46
2024-04-18T03:24:21.990Z,5.42
2024-04-18T03:26:49.926Z,5.41
2024-04-18T03:29:16.674Z,5.42
2024-04-18T03:31:44.643Z,5.44
2024-04-18T03:34:11.177Z,5.44
2024-04-18T03:36:42.820Z,5.44
2024-04-18T03:39:10.473Z,5.34
2024-04-18T03:41:39.820Z,5.38
2024-04-18T03:44:07.813Z,5.42
2024-04-18T03:46:36.870Z,5.39
2024-04-18T03:49:03.600Z,5.45
2024-04-18T03:51:31.573Z,5.42
2024-04-18T03:54:01.567Z,5.35
2024-04-18T03:56:28.075Z,5.30
2024-04-18T03:58:56.320Z,5.27
2024-04-18T04:01:25.263Z,5.34
2024-04-18T04:03:52.747Z,5.38
2024-04-18T04:06:19.432Z,5.49
2024-04-18T04:08:46.083Z,5.41
2024-04-18T04:11:12.840Z,5.41
2024-04-18T04:13:39.460Z,5.38
2024-04-18T04:16:06.473Z,5.46
2024-04-18T04:18:33.459Z,5.42
2024-04-18T04:21:00.395Z,5.45
2024-04-18T04:23:27.296Z,5.44
2024-04-18T04:25:54.426Z,5.48
2024-04-18T04:28:21.074Z,5.49
2024-04-18T04:30:47.688Z,5.48
2024-04-18T04:33:14.221Z,5.44
2024-04-18T04:35:40.757Z,5.30
2024-04-18T04:38:07.443Z,5.32
2024-04-18T04:40:35.252Z,5.30
2024-04-18T04:43:01.812Z,5.25
2024-04-18T04:45:28.838Z,5.31
2024-04-18T04:47:55.584Z,5.39
2024-04-18T04:50:23.903Z,5.41
2024-04-18T04:52:50.484Z,5.39
2024-04-18T04:55:17.115Z,5.42
2024-04-18T04:57:43.698Z,5.38
2024-04-18T05:00:10.699Z,5.48
2024-04-18T05:02:39.284Z,5.44
2024-04-18T05:05:07.253Z,5.45
2024-04-18T05:07:34.323Z,5.49
2024-04-18T05:10:01.383Z,5.41
2024-04-18T05:12:29.399Z,5.49
2024-04-18T05:14:56.068Z,5.51
2024-04-18T05:17:22.645Z,5.39
2024-04-18T05:19:50.556Z,5.38
2024-04-18T05:22:17.588Z,5.39
2024-04-18T05:24:44.418Z,5.46
2024-04-18T05:27:11.090Z,5.52
2024-04-18T05:29:56.018Z,5.62
2024-04-18T05:32:22.814Z,5.66
2024-04-18T05:34:50.920Z,5.62
2024-04-18T05:37:20.949Z,5.69
2024-04-18T05:39:50.617Z,5.69
2024-04-18T05:42:17.313Z,5.77
2024-04-18T05:44:43.944Z,5.85
2024-04-18T05:47:10.986Z,5.80
2024-04-18T05:49:37.866Z,5.75
2024-04-18T05:52:04.776Z,5.70
2024-04-18T05:54:32.442Z,5.54
2024-04-18T05:56:59.063Z,5.54
2024-04-18T05:59:25.668Z,5.60
2024-04-18T06:01:52.344Z,5.80
2024-04-18T06:04:20.540Z,5.85
2024-04-18T06:06:47.404Z,5.93
2024-04-18T06:09:14.063Z,5.86
2024-04-18T06:11:44.626Z,5.87
2024-04-18T06:14:16.603Z,5.90
2024-04-18T06:16:43.856Z,5.86
2024-04-18T06:19:11.599Z,5.87
2024-04-18T06:21:38.208Z,5.95
2024-04-18T06:24:06.324Z,5.90
2024-04-18T06:26:32.954Z,6.21
2024-04-18T06:32:39.588Z,6.55
2024-04-18T06:35:06.369Z,6.76
2024-04-18T06:37:33.025Z,6.86
2024-04-18T06:40:01.514Z,6.95
2024-04-18T06:42:29.945Z,6.79
2024-04-18T06:44:56.515Z,6.88
2024-04-18T06:47:23.131Z,6.92
2024-04-18T06:49:49.807Z,6.76
2024-04-18T06:52:16.432Z,6.58
2024-04-18T06:54:43.541Z,6.51
2024-04-18T06:57:10.332Z,6.63
2024-04-18T06:59:37.008Z,6.76
2024-04-18T07:02:05.122Z,6.81
2024-04-18T07:04:31.771Z,6.92
2024-04-18T07:07:00.313Z,6.92
2024-04-18T07:09:27.252Z,7.00
2024-04-18T07:11:54.981Z,7.05
2024-04-18T07:14:21.668Z,7.03
2024-04-18T07:16:48.604Z,7.05
2024-04-18T07:19:17.680Z,7.16
2024-04-18T07:21:44.329Z,7.28
2024-04-18T07:24:10.973Z,7.34
2024-04-18T07:26:37.729Z,7.31
2024-04-18T07:29:05.073Z,7.35
2024-04-18T07:31:31.702Z,7.46
2024-04-18T07:33:58.316Z,7.92
2024-04-18T07:36:25.284Z,8.21
2024-04-18T07:38:52.093Z,9.46
2024-04-18T07:41:18.715Z,9.93
2024-04-18T07:43:45.556Z,8.89
2024-04-18T07:46:14.147Z,9.94
2024-04-18T07:48:41.466Z,10.20
2024-04-18T07:51:08.367Z,10.69
2024-04-18T07:53:35.040Z,10.73
2024-04-18T07:56:03.418Z,10.46
2024-04-18T07:58:31.001Z,9.86
2024-04-18T08:00:59.130Z,10.10
2024-04-18T08:03:28.667Z,10.07
2024-04-18T08:05:58.085Z,10.33
2024-04-18T08:08:29.031Z,9.22
2024-04-18T08:13:30.777Z,9.43
2024-04-18T08:16:03.549Z,9.14
2024-04-18T08:18:31.763Z,9.12
2024-04-18T08:21:00.543Z,8.80
2024-04-18T08:23:27.409Z,8.52
2024-04-18T08:25:54.057Z,9.49
2024-04-18T08:28:21.181Z,10.18
2024-04-18T08:30:47.779Z,9.97
2024-04-18T08:33:14.491Z,9.91
2024-04-18T08:35:41.091Z,9.71
2024-04-18T08:38:09.808Z,10.38
2024-04-18T08:40:37.843Z,11.10
2024-04-18T08:43:05.346Z,12.26
2024-04-18T08:45:37.652Z,12.33
2024-04-18T08:48:06.667Z,12.00
2024-04-18T08:50:35.770Z,11.01
2024-04-18T08:53:03.315Z,11.39
2024-04-18T08:55:33.077Z,11.24
2024-04-18T08:58:05.850Z,10.37
2024-04-18T09:00:34.384Z,10.38
2024-04-18T09:03:01.803Z,10.33
2024-04-18T09:05:28.398Z,10.42
2024-04-18T09:07:55.034Z,11.24
2024-04-18T09:10:24.561Z,11.39
2024-04-18T09:12:55.690Z,13.07
2024-04-18T09:15:24.932Z,13.63
2024-04-18T09:18:06.366Z,14.79
2024-04-18T09:20:39.762Z,13.56
2024-04-18T09:23:06.688Z,12.65
2024-04-18T09:25:36.380Z,13.42
2024-04-18T09:28:05.601Z,14.02
2024-04-18T09:30:32.159Z,15.20
2024-04-18T09:33:04.231Z,15.66
2024-04-18T09:35:34.720Z,15.24
2024-04-18T09:38:09.274Z,14.04
2024-04-18T09:40:44.263Z,14.67
2024-04-18T09:43:23.146Z,14.98
2024-04-18T09:46:01.037Z,13.37
2024-04-18T09:48:29.308Z,13.95
2024-04-18T09:50:57.071Z,13.63
2024-04-18T09:53:23.706Z,12.78
2024-04-18T09:55:51.625Z,12.89
2024-04-18T09:58:26.060Z,12.85
2024-04-18T10:00:53.480Z,12.46
2024-04-18T10:03:20.633Z,12.00
2024-04-18T10:05:52.238Z,11.16
2024-04-18T10:08:23.695Z,11.01
2024-04-18T10:10:51.967Z,10.59
2024-04-18T10:13:23.208Z,10.80
2024-04-18T10:15:50.378Z,10.70
2024-04-18T10:18:20.497Z,10.77
2024-04-18T10:20:47.361Z,10.97
2024-04-18T10:23:15.140Z,13.33
2024-04-18T10:25:42.566Z,12.43
2024-04-18T10:28:26.512Z,11.54
2024-04-18T10:30:53.588Z,11.23
2024-04-18T10:33:29.743Z,11.76
2024-04-18T10:35:56.721Z,11.75
2024-04-18T10:38:29.878Z,11.81
2024-04-18T10:41:04.424Z,11.52
2024-04-18T10:43:33.810Z,11.88
2024-04-18T10:46:08.255Z,11.92
2024-04-18T10:48:35.771Z,11.52
2024-04-18T10:51:03.667Z,11.01
2024-04-18T10:53:41.935Z,11.99
2024-04-18T10:56:08.622Z,12.68
2024-04-18T10:58:37.054Z,12.81
2024-04-18T11:01:04.430Z,13.20
2024-04-18T11:03:31.933Z,14.64
2024-04-18T11:06:01.252Z,14.56
2024-04-18T11:08:34.930Z,14.12
2024-04-18T11:11:04.795Z,12.88
2024-04-18T11:13:31.772Z,12.00
2024-04-18T11:15:58.345Z,12.36
2024-04-18T11:18:25.850Z,12.34
2024-04-18T11:20:53.485Z,12.54
2024-04-18T11:23:32.188Z,12.21
2024-04-18T11:26:02.153Z,12.09
2024-04-18T11:28:29.513Z,11.85
2024-04-18T11:30:57.303Z,13.34
2024-04-18T11:33:26.039Z,13.46
2024-04-18T11:35:53.036Z,12.71
2024-04-18T11:38:19.606Z,12.89
2024-04-18T11:40:46.390Z,14.09
2024-04-18T11:43:12.972Z,13.74
2024-04-18T11:45:40.438Z,13.58
2024-04-18T11:48:11.660Z,14.04
2024-04-18T11:50:38.370Z,15.82
2024-04-18T11:53:05.032Z,15.04
2024-04-18T11:55:31.831Z,15.55
2024-04-18T11:57:58.500Z,17.23
2024-04-18T12:00:25.288Z,16.58
2024-04-18T12:02:52.215Z,17.48
2024-04-18T12:05:18.974Z,16.49
2024-04-18T12:07:49.973Z,15.93
2024-04-18T12:10:22.352Z,14.55
2024-04-18T12:12:50.630Z,13.68
2024-04-18T12:15:17.601Z,15.14
2024-04-18T12:17:44.382Z,16.69
2024-04-18T12:20:11.503Z,17.24
2024-04-18T12:22:38.090Z,13.77
2024-04-18T12:25:07.755Z,15.24
2024-04-18T12:27:34.512Z,15.62
2024-04-18T12:30:01.223Z,15.97
2024-04-18T12:32:27.904Z,15.65
2024-04-18T12:34:54.549Z,15.18
2024-04-18T12:37:21.182Z,14.91
2024-04-18T12:39:49.583Z,15.18
2024-04-18T12:42:16.460Z,13.68
2024-04-18T12:44:43.083Z,14.55
2024-04-18T12:47:12.009Z,16.18
2024-04-18T12:49:42.147Z,18.17
2024-04-18T12:52:08.890Z,17.86
2024-04-18T12:54:35.490Z,16.06
2024-04-18T12:57:02.214Z,15.25
2024-04-18T12:59:29.325Z,13.98
2024-04-18T13:01:56.014Z,13.94
2024-04-18T13:04:22.953Z,14.33
2024-04-18T13:06:49.762Z,14.35
2024-04-18T13:09:16.459Z,16.16
2024-04-18T13:11:43.113Z,15.94
2024-04-18T13:14:11.210Z,14.67
2024-04-18T13:16:38.210Z,15.10
2024-04-18T13:19:05.054Z,15.42
2024-04-18T13:21:31.658Z,15.04
2024-04-18T13:23:58.253Z,15.11
2024-04-18T13:26:24.922Z,14.63
2024-04-18T13:28:51.503Z,14.06
2024-04-18T13:31:18.123Z,14.43
2024-04-18T13:33:44.904Z,14.79
2024-04-18T13:36:13.311Z,15.83
2024-04-18T13:38:41.271Z,17.34
2024-04-18T13:41:08.082Z,16.48
2024-04-18T13:43:34.662Z,15.25
2024-04-18T13:46:01.375Z,15.07
2024-04-18T13:48:28.088Z,14.80
2024-04-18T13:50:56.296Z,14.74
2024-04-18T13:53:23.601Z,14.39
2024-04-18T13:55:52.191Z,13.97
2024-04-18T13:58:20.781Z,13.77
2024-04-18T14:00:48.068Z,14.21
2024-04-18T14:03:19.539Z,14.83
2024-04-18T14:05:46.991Z,15.96
2024-04-18T14:08:14.510Z,14.77
2024-04-18T14:10:41.748Z,14.48
2024-04-18T14:13:09.443Z,13.91
2024-04-18T14:15:39.984Z,14.22
2024-04-18T14:18:25.553Z,14.49
2024-04-18T14:20:53.342Z,14.85
2024-04-18T14:23:19.918Z,14.77
2024-04-18T14:25:46.504Z,14.39
2024-04-18T14:28:23.470Z,13.88
2024-04-18T14:30:54.581Z,13.64
2024-04-18T14:33:21.342Z,12.99
2024-04-18T14:35:48.061Z,12.93
2024-04-18T14:38:15.037Z,12.78
2024-04-18T14:40:49.868Z,12.93
2024-04-18T14:43:20.196Z,13.16
2024-04-18T14:45:46.908Z,13.02
2024-04-18T14:48:13.512Z,13.25
2024-04-18T14:50:40.293Z,13.23
2024-04-18T14:53:07.933Z,13.36
2024-04-18T14:55:34.599Z,13.67
2024-04-18T14:58:01.140Z,13.77
2024-04-18T15:00:27.730Z,14.02
2024-04-18T15:02:54.435Z,15.35
2024-04-18T15:05:22.613Z,16.85
2024-04-18T15:07:49.542Z,16.61
2024-04-18T15:10:16.965Z,15.18
2024-04-18T15:12:43.640Z,14.93
2024-04-18T15:15:10.726Z,14.08
2024-04-18T15:17:37.417Z,14.57
2024-04-18T15:20:04.946Z,14.80
2024-04-18T15:22:33.876Z,14.12
2024-04-18T15:25:00.422Z,14.93
2024-04-18T15:27:30.798Z,13.84
2024-04-18T15:29:57.927Z,12.99
2024-04-18T15:32:25.220Z,13.22
2024-04-18T15:34:52.031Z,13.67
2024-04-18T15:37:18.911Z,13.84
2024-04-18T15:39:45.514Z,13.63
2024-04-18T15:42:12.165Z,13.75
2024-04-18T15:44:38.794Z,13.98
2024-04-18T15:47:06.653Z,13.77
2024-04-18T15:49:34.038Z,13.30
2024-04-18T15:52:00.579Z,12.99
2024-04-18T15:54:27.233Z,12.81
2024-04-18T15:56:54.152Z,13.25
2024-04-18T15:59:20.801Z,13.74
2024-04-18T16:01:47.616Z,13.77
2024-04-18T16:04:14.342Z,13.70
2024-04-18T16:06:41.658Z,13.70
2024-04-18T16:09:08.324Z,13.23
2024-04-18T16:11:34.992Z,13.58
2024-04-18T16:14:01.860Z,13.15
2024-04-18T16:16:28.508Z,12.98
2024-04-18T16:18:55.160Z,12.95
2024-04-18T16:21:22.140Z,13.16
2024-04-18T16:23:49.808Z,13.12
2024-04-18T16:26:16.431Z,13.33
2024-04-18T16:28:43.428Z,13.40
2024-04-18T16:31:10.028Z,13.71
2024-04-18T16:33:37.901Z,13.70
2024-04-18T16:36:05.259Z,13.00
2024-04-18T16:38:32.784Z,12.82
2024-04-18T16:41:00.761Z,12.69
2024-04-18T16:43:27.379Z,12.40
2024-04-18T16:45:53.945Z,12.33
2024-04-18T16:48:20.873Z,12.46
2024-04-18T16:50:48.106Z,12.23
2024-04-18T16:53:15.218Z,11.95
2024-04-18T16:55:41.805Z,12.05
2024-04-18T16:58:08.371Z,11.85
2024-04-18T17:00:37.379Z,11.85
2024-04-18T17:03:04.715Z,11.82
2024-04-18T17:05:31.375Z,11.74
2024-04-18T17:07:57.913Z,11.76
2024-04-18T17:10:26.748Z,11.93
2024-04-18T17:12:53.433Z,12.13
2024-04-18T17:15:20.124Z,12.06
2024-04-18T17:17:48.169Z,11.83
2024-04-18T17:20:14.831Z,11.68
2024-04-18T17:22:41.398Z,11.59
2024-04-18T17:25:09.915Z,11.63
2024-04-18T17:27:36.771Z,11.75
2024-04-18T17:30:03.648Z,11.66
2024-04-18T17:32:30.431Z,11.59
2024-04-18T17:34:57.064Z,11.55
2024-04-18T17:37:23.610Z,11.49
2024-04-18T17:39:51.814Z,11.63
2024-04-18T17:42:18.588Z,11.69
2024-04-18T17:44:46.658Z,11.44
2024-04-18T17:47:14.311Z,11.37
2024-04-18T17:49:40.987Z,11.21
2024-04-18T17:52:07.765Z,11.20
2024-04-18T17:58:51.769Z,11.06
2024-04-18T18:01:18.620Z,11.04
2024-04-18T18:03:45.242Z,11.01
2024-04-18T18:06:11.966Z,11.03
2024-04-18T18:08:40.591Z,11.00
2024-04-18T18:11:07.145Z,10.97
2024-04-18T18:13:33.701Z,10.90
2024-04-18T18:16:00.351Z,10.90
2024-04-18T18:18:27.388Z,10.96
2024-04-18T18:20:54.043Z,10.91
2024-04-18T18:23:22.303Z,10.93
2024-04-18T18:25:49.061Z,10.90
2024-04-18T18:28:18.612Z,10.91
2024-04-18T18:30:45.244Z,10.89
2024-04-18T18:33:11.854Z,10.86
2024-04-18T18:35:38.458Z,10.80
2024-04-18T18:38:05.244Z,10.75
2024-04-18T18:40:34.752Z,10.75
2024-04-18T18:43:02.490Z,10.73
2024-04-18T18:45:29.121Z,10.68
2024-04-18T18:47:56.437Z,10.76
2024-04-18T18:50:23.254Z,10.65
2024-04-18T18:52:50.149Z,10.53
2024-04-18T18:55:16.911Z,10.55
2024-04-18T18:57:49.209Z,10.53
2024-04-18T19:00:16.073Z,10.56
2024-04-18T19:02:46.873Z,10.55
2024-04-18T19:05:14.921Z,10.45
2024-04-18T19:07:41.452Z,10.31
2024-04-18T19:10:08.236Z,10.28
2024-04-18T19:12:36.614Z,10.38
2024-04-18T19:15:03.963Z,10.26
2024-04-18T19:17:32.255Z,10.26
2024-04-18T19:19:59.602Z,10.31
2024-04-18T19:22:26.440Z,10.25
2024-04-18T19:24:53.137Z,10.17
2024-04-18T19:27:20.380Z,10.21
2024-04-18T19:29:47.982Z,10.17
2024-04-18T19:32:16.715Z,10.12
2024-04-18T19:34:43.475Z,10.17
2024-04-18T19:37:11.213Z,10.12
2024-04-18T19:39:37.816Z,10.15
2024-04-18T19:42:04.899Z,10.08
2024-04-18T19:44:32.225Z,10.02
2024-04-18T19:47:01.194Z,9.89
2024-04-18T19:49:29.733Z,9.86
2024-04-18T19:52:00.750Z,9.81
2024-04-18T19:54:30.096Z,9.91
2024-04-18T19:57:01.202Z,9.87
2024-04-18T19:59:28.965Z,9.83
2024-04-18T20:01:55.536Z,9.80
2024-04-18T20:04:22.862Z,9.71
2024-04-18T20:06:49.565Z,9.74
2024-04-18T20:09:16.210Z,9.73
2024-04-18T20:11:45.199Z,9.66
2024-04-18T20:14:11.743Z,9.73
2024-04-18T20:16:44.842Z,9.64
2024-04-18T20:19:14.260Z,9.62
2024-04-18T20:21:43.170Z,9.64
2024-04-18T20:24:11.060Z,9.62
2024-04-18T20:26:38.944Z,9.57
2024-04-18T20:29:10.309Z,9.63
2024-04-18T20:31:37.354Z,9.59
2024-04-18T20:34:04.285Z,9.56
2024-04-18T20:36:33.778Z,9.54
2024-04-18T20:39:00.370Z,9.52
2024-04-18T20:41:27.013Z,9.49
2024-04-18T20:43:53.850Z,9.43
2024-04-18T20:46:30.228Z,9.42
2024-04-18T20:48:57.282Z,9.44
2024-04-18T20:51:24.174Z,9.44
2024-04-18T20:53:50.957Z,9.40
2024-04-18T20:56:19.002Z,9.39
2024-04-18T20:58:46.167Z,9.33
2024-04-18T21:01:13.058Z,9.36
2024-04-18T21:03:39.898Z,9.35
2024-04-18T21:06:06.805Z,9.25
2024-04-18T21:08:34.211Z,9.28
2024-04-18T21:11:02.078Z,9.21
2024-04-18T21:13:28.739Z,9.22
2024-04-18T21:15:59.715Z,9.21
2024-04-18T21:18:26.724Z,9.15
2024-04-18T21:20:53.856Z,9.11
2024-04-18T21:23:21.061Z,9.04
2024-04-18T21:25:47.775Z,9.08
2024-04-18T21:28:14.442Z,9.12
2024-04-18T21:30:41.375Z,9.08
2024-04-18T21:33:08.412Z,9.19
2024-04-18T21:35:36.282Z,9.12
2024-04-18T21:38:04.869Z,9.10
2024-04-18T21:40:31.746Z,9.10
2024-04-18T21:43:03.807Z,9.07
2024-04-18T21:45:31.863Z,9.10
2024-04-18T21:47:59.531Z,8.95
2024-04-18T21:50:26.311Z,8.98
2024-04-18T21:52:53.110Z,8.94
2024-04-18T21:55:19.844Z,8.94
2024-04-18T21:57:46.626Z,9.00
2024-04-18T22:00:13.593Z,8.95
2024-04-18T22:02:40.498Z,8.91
2024-04-18T22:05:07.372Z,8.77
2024-04-18T22:07:34.164Z,8.75
2024-04-18T22:10:00.874Z,8.70
2024-04-18T22:12:27.574Z,8.71
2024-04-18T22:14:56.539Z,8.71
2024-04-18T22:17:24.590Z,8.75
2024-04-18T22:19:51.798Z,8.73
2024-04-18T22:22:18.516Z,8.77
2024-04-18T22:24:45.200Z,8.77
2024-04-18T22:27:12.715Z,8.74
2024-04-18T22:29:39.607Z,8.65
2024-04-18T22:32:06.845Z,8.74
2024-04-18T22:34:37.279Z,8.70
2024-04-18T22:37:04.836Z,8.71
2024-04-18T22:39:32.143Z,8.73
2024-04-18T22:41:58.868Z,8.70
2024-04-18T22:44:25.639Z,8.63
2024-04-18T22:46:52.315Z,8.73
2024-04-18T22:49:19.050Z,8.68
2024-04-18T22:51:46.045Z,8.68
2024-04-18T22:54:12.749Z,8.67
2024-04-18T22:56:39.482Z,8.63
2024-04-18T22:59:06.479Z,8.65
2024-04-18T23:01:33.200Z,8.65
2024-04-18T23:04:00.538Z,8.73
2024-04-18T23:06:27.342Z,8.70
2024-04-18T23:08:54.374Z,8.75
2024-04-18T23:11:22.209Z,8.65
2024-04-18T23:13:49.738Z,8.70
2024-04-18T23:16:16.471Z,8.61
2024-04-18T23:18:44.850Z,8.63
2024-04-18T23:21:11.862Z,8.67
2024-04-18T23:23:38.624Z,8.65
2024-04-18T23:26:05.363Z,8.68
2024-04-18T23:28:32.099Z,8.73
2024-04-18T23:30:59.122Z,8.68
2024-04-18T23:33:25.910Z,8.64
2024-04-18T23:35:52.657Z,8.70
2024-04-18T23:38:19.376Z,8.68
2024-04-18T23:40:46.589Z,8.78
2024-04-18T23:43:13.263Z,8.81
2024-04-18T23:45:40.132Z,8.74
2024-04-18T23:48:08.089Z,8.63
2024-04-18T23:50:34.865Z,8.34
2024-04-18T23:53:01.537Z,8.44
2024-04-18T23:55:28.335Z,8.46
